sensor_id;sensor_type;location;lat;lon;timestamp;P1;durP1;ratioP1;P2;durP2;ratioP2
62610;SDS011;48683;48.084;17.272;2022-12-07T00:02:23;19.23;;;12.23;;
62610;SDS011;48683;48.084;17.272;2022-12-07T00:04:49;19.60;;;12.05;;
62610;SDS011;48683;48.084;17.272;2022-12-07T00:07:14;18.63;;;12.00;;
62610;SDS011;48683;48.084;17.272;2022-12-07T00:09:39;18.88;;;12.18;;
62610;SDS011;48683;48.084;17.272;2022-12-07T00:12:06;16.13;;;11.63;;
62610;SDS011;48683;48.084;17.272;2022-12-07T00:14:32;18.30;;;12.30;;
62610;SDS011;48683;48.084;17.272;2022-12-07T00:16:57;15.57;;;11.63;;
62610;SDS011;48683;48.084;17.272;2022-12-07T00:19:22;13.43;;;10.40;;
62610;SDS011;48683;48.084;17.272;2022-12-07T00:21:48;14.55;;;10.82;;
62610;SDS011;48683;48.084;17.272;2022-12-07T00:24:13;15.65;;;10.50;;
62610;SDS011;48683;48.084;17.272;2022-12-07T00:26:39;12.23;;;9.75;;
62610;SDS011;48683;48.084;17.272;2022-12-07T00:29:07;13.57;;;10.13;;
62610;SDS011;48683;48.084;17.272;2022-12-07T00:31:37;12.25;;;9.88;;
62610;SDS011;48683;48.084;17.272;2022-12-07T00:34:11;10.18;;;8.85;;
62610;SDS011;48683;48.084;17.272;2022-12-07T00:36:38;11.50;;;9.20;;
62610;SDS011;48683;48.084;17.272;2022-12-07T00:39:04;12.43;;;9.63;;
62610;SDS011;48683;48.084;17.272;2022-12-07T00:41:29;12.75;;;9.40;;
62610;SDS011;48683;48.084;17.272;2022-12-07T00:43:55;11.10;;;8.48;;
62610;SDS011;48683;48.084;17.272;2022-12-07T00:46:20;11.65;;;9.23;;
62610;SDS011;48683;48.084;17.272;2022-12-07T00:48:47;10.18;;;8.15;;
62610;SDS011;48683;48.084;17.272;2022-12-07T00:51:13;9.88;;;7.93;;
62610;SDS011;48683;48.084;17.272;2022-12-07T00:53:40;10.75;;;7.35;;
62610;SDS011;48683;48.084;17.272;2022-12-07T00:56:06;9.48;;;7.90;;
62610;SDS011;48683;48.084;17.272;2022-12-07T00:58:43;9.63;;;7.03;;
62610;SDS011;48683;48.084;17.272;2022-12-07T01:01:09;11.90;;;7.40;;
62610;SDS011;48683;48.084;17.272;2022-12-07T01:03:35;9.10;;;6.80;;
62610;SDS011;48683;48.084;17.272;2022-12-07T01:06:01;9.43;;;6.80;;
62610;SDS011;48683;48.084;17.272;2022-12-07T01:08:27;8.05;;;6.57;;
62610;SDS011;48683;48.084;17.272;2022-12-07T01:11:00;8.90;;;6.93;;
62610;SDS011;48683;48.084;17.272;2022-12-07T01:13:28;6.95;;;5.90;;
62610;SDS011;48683;48.084;17.272;2022-12-07T01:15:55;7.18;;;6.05;;
62610;SDS011;48683;48.084;17.272;2022-12-07T01:18:26;8.68;;;5.85;;
62610;SDS011;48683;48.084;17.272;2022-12-07T01:21:02;7.57;;;5.82;;
62610;SDS011;48683;48.084;17.272;2022-12-07T01:23:33;7.28;;;6.00;;
62610;SDS011;48683;48.084;17.272;2022-12-07T01:26:01;6.72;;;5.63;;
62610;SDS011;48683;48.084;17.272;2022-12-07T01:28:28;8.27;;;5.78;;
62610;SDS011;48683;48.084;17.272;2022-12-07T01:31:06;8.00;;;6.20;;
62610;SDS011;48683;48.084;17.272;2022-12-07T01:33:36;8.75;;;5.95;;
62610;SDS011;48683;48.084;17.272;2022-12-07T01:36:14;7.40;;;6.07;;
62610;SDS011;48683;48.084;17.272;2022-12-07T01:38:46;9.63;;;6.38;;
62610;SDS011;48683;48.084;17.272;2022-12-07T01:41:12;7.43;;;6.20;;
62610;SDS011;48683;48.084;17.272;2022-12-07T01:46:35;6.78;;;5.75;;
62610;SDS011;48683;48.084;17.272;2022-12-07T01:49:00;7.40;;;5.70;;
62610;SDS011;48683;48.084;17.272;2022-12-07T01:51:27;7.90;;;5.70;;
62610;SDS011;48683;48.084;17.272;2022-12-07T01:53:53;6.57;;;5.22;;
62610;SDS011;48683;48.084;17.272;2022-12-07T01:56:19;8.00;;;6.00;;
62610;SDS011;48683;48.084;17.272;2022-12-07T01:58:49;6.80;;;5.07;;
62610;SDS011;48683;48.084;17.272;2022-12-07T02:01:16;7.55;;;6.13;;
62610;SDS011;48683;48.084;17.272;2022-12-07T02:03:43;6.78;;;5.72;;
62610;SDS011;48683;48.084;17.272;2022-12-07T02:06:10;6.18;;;5.55;;
62610;SDS011;48683;48.084;17.272;2022-12-07T02:08:38;11.05;;;5.93;;
62610;SDS011;48683;48.084;17.272;2022-12-07T02:11:04;6.65;;;5.88;;
62610;SDS011;48683;48.084;17.272;2022-12-07T02:13:32;7.20;;;6.10;;
62610;SDS011;48683;48.084;17.272;2022-12-07T02:21:21;7.43;;;6.07;;
62610;SDS011;48683;48.084;17.272;2022-12-07T02:23:59;9.20;;;6.40;;
62610;SDS011;48683;48.084;17.272;2022-12-07T02:29:37;9.93;;;6.72;;
62610;SDS011;48683;48.084;17.272;2022-12-07T02:34:47;8.35;;;7.10;;
62610;SDS011;48683;48.084;17.272;2022-12-07T02:39:52;10.23;;;7.35;;
62610;SDS011;48683;48.084;17.272;2022-12-07T02:42:23;9.43;;;6.93;;
62610;SDS011;48683;48.084;17.272;2022-12-07T02:44:55;9.73;;;7.22;;
62610;SDS011;48683;48.084;17.272;2022-12-07T02:47:21;10.60;;;7.85;;
62610;SDS011;48683;48.084;17.272;2022-12-07T02:49:49;9.93;;;7.90;;
62610;SDS011;48683;48.084;17.272;2022-12-07T02:52:16;9.27;;;7.63;;
62610;SDS011;48683;48.084;17.272;2022-12-07T02:54:41;10.20;;;7.85;;
62610;SDS011;48683;48.084;17.272;2022-12-07T03:00:45;9.98;;;7.85;;
62610;SDS011;48683;48.084;17.272;2022-12-07T03:03:31;10.15;;;7.78;;
62610;SDS011;48683;48.084;17.272;2022-12-07T03:08:48;12.20;;;8.75;;
62610;SDS011;48683;48.084;17.272;2022-12-07T03:11:23;10.60;;;7.75;;
62610;SDS011;48683;48.084;17.272;2022-12-07T03:13:59;10.68;;;8.65;;
62610;SDS011;48683;48.084;17.272;2022-12-07T03:16:32;11.93;;;8.77;;
62610;SDS011;48683;48.084;17.272;2022-12-07T03:19:03;12.20;;;9.25;;
62610;SDS011;48683;48.084;17.272;2022-12-07T03:21:34;12.32;;;8.90;;
62610;SDS011;48683;48.084;17.272;2022-12-07T03:24:05;12.20;;;9.30;;
62610;SDS011;48683;48.084;17.272;2022-12-07T03:26:35;12.02;;;9.30;;
62610;SDS011;48683;48.084;17.272;2022-12-07T03:32:02;14.00;;;9.73;;
62610;SDS011;48683;48.084;17.272;2022-12-07T03:34:59;13.73;;;8.80;;
62610;SDS011;48683;48.084;17.272;2022-12-07T03:37:38;11.23;;;9.10;;
62610;SDS011;48683;48.084;17.272;2022-12-07T03:40:11;12.90;;;9.82;;
62610;SDS011;48683;48.084;17.272;2022-12-07T03:42:42;10.68;;;8.43;;
62610;SDS011;48683;48.084;17.272;2022-12-07T03:45:08;12.57;;;9.07;;
62610;SDS011;48683;48.084;17.272;2022-12-07T03:47:35;14.52;;;10.13;;
62610;SDS011;48683;48.084;17.272;2022-12-07T03:52:56;14.80;;;10.18;;
62610;SDS011;48683;48.084;17.272;2022-12-07T03:55:29;13.75;;;9.80;;
62610;SDS011;48683;48.084;17.272;2022-12-07T03:58:02;12.77;;;10.00;;
62610;SDS011;48683;48.084;17.272;2022-12-07T04:00:30;13.55;;;10.27;;
62610;SDS011;48683;48.084;17.272;2022-12-07T04:02:56;12.70;;;9.20;;
62610;SDS011;48683;48.084;17.272;2022-12-07T04:05:21;14.05;;;10.65;;
62610;SDS011;48683;48.084;17.272;2022-12-07T04:07:47;13.35;;;10.00;;
62610;SDS011;48683;48.084;17.272;2022-12-07T04:10:13;12.82;;;9.38;;
62610;SDS011;48683;48.084;17.272;2022-12-07T04:12:39;14.95;;;10.75;;
62610;SDS011;48683;48.084;17.272;2022-12-07T04:15:04;15.80;;;11.50;;
62610;SDS011;48683;48.084;17.272;2022-12-07T04:17:31;14.82;;;10.68;;
62610;SDS011;48683;48.084;17.272;2022-12-07T04:19:56;14.57;;;11.02;;
62610;SDS011;48683;48.084;17.272;2022-12-07T04:22:21;16.20;;;11.13;;
62610;SDS011;48683;48.084;17.272;2022-12-07T04:24:47;16.40;;;11.88;;
62610;SDS011;48683;48.084;17.272;2022-12-07T04:27:12;17.00;;;11.77;;
62610;SDS011;48683;48.084;17.272;2022-12-07T04:29:38;16.52;;;12.07;;
62610;SDS011;48683;48.084;17.272;2022-12-07T04:32:03;16.13;;;12.13;;
62610;SDS011;48683;48.084;17.272;2022-12-07T04:34:28;20.33;;;13.80;;
62610;SDS011;48683;48.084;17.272;2022-12-07T04:36:54;22.17;;;14.27;;
62610;SDS011;48683;48.084;17.272;2022-12-07T04:39:24;20.30;;;14.98;;
62610;SDS011;48683;48.084;17.272;2022-12-07T04:41:50;19.98;;;14.45;;
62610;SDS011;48683;48.084;17.272;2022-12-07T04:44:16;22.70;;;16.55;;
62610;SDS011;48683;48.084;17.272;2022-12-07T04:46:43;24.70;;;17.08;;
62610;SDS011;48683;48.084;17.272;2022-12-07T04:49:09;25.00;;;17.40;;
62610;SDS011;48683;48.084;17.272;2022-12-07T04:51:35;25.23;;;17.58;;
62610;SDS011;48683;48.084;17.272;2022-12-07T04:54:00;23.67;;;16.67;;
62610;SDS011;48683;48.084;17.272;2022-12-07T04:56:26;24.35;;;16.67;;
62610;SDS011;48683;48.084;17.272;2022-12-07T04:58:52;25.45;;;17.38;;
62610;SDS011;48683;48.084;17.272;2022-12-07T05:01:19;23.60;;;15.75;;
62610;SDS011;48683;48.084;17.272;2022-12-07T05:03:45;22.70;;;16.80;;
62610;SDS011;48683;48.084;17.272;2022-12-07T05:06:10;22.75;;;15.85;;
62610;SDS011;48683;48.084;17.272;2022-12-07T05:08:36;23.58;;;16.38;;
62610;SDS011;48683;48.084;17.272;2022-12-07T05:11:02;23.77;;;16.20;;
62610;SDS011;48683;48.084;17.272;2022-12-07T05:13:28;22.07;;;15.33;;
62610;SDS011;48683;48.084;17.272;2022-12-07T05:15:53;22.45;;;16.25;;
62610;SDS011;48683;48.084;17.272;2022-12-07T05:18:19;23.67;;;17.40;;
62610;SDS011;48683;48.084;17.272;2022-12-07T05:20:44;23.45;;;16.80;;
62610;SDS011;48683;48.084;17.272;2022-12-07T05:23:10;24.17;;;16.65;;
62610;SDS011;48683;48.084;17.272;2022-12-07T05:25:36;22.77;;;16.52;;
62610;SDS011;48683;48.084;17.272;2022-12-07T05:28:02;22.92;;;16.10;;
62610;SDS011;48683;48.084;17.272;2022-12-07T05:30:27;26.65;;;17.65;;
62610;SDS011;48683;48.084;17.272;2022-12-07T05:32:53;24.17;;;16.83;;
62610;SDS011;48683;48.084;17.272;2022-12-07T05:35:18;23.15;;;16.17;;
62610;SDS011;48683;48.084;17.272;2022-12-07T05:37:44;23.13;;;16.45;;
62610;SDS011;48683;48.084;17.272;2022-12-07T05:40:11;25.08;;;16.55;;
62610;SDS011;48683;48.084;17.272;2022-12-07T05:42:37;22.42;;;16.15;;
62610;SDS011;48683;48.084;17.272;2022-12-07T05:45:03;25.92;;;16.58;;
62610;SDS011;48683;48.084;17.272;2022-12-07T05:47:29;21.90;;;14.82;;
62610;SDS011;48683;48.084;17.272;2022-12-07T05:49:55;22.88;;;15.57;;
62610;SDS011;48683;48.084;17.272;2022-12-07T05:52:20;23.13;;;15.25;;
62610;SDS011;48683;48.084;17.272;2022-12-07T05:54:46;20.23;;;14.93;;
62610;SDS011;48683;48.084;17.272;2022-12-07T05:57:11;21.33;;;15.38;;
62610;SDS011;48683;48.084;17.272;2022-12-07T05:59:36;23.35;;;16.15;;
62610;SDS011;48683;48.084;17.272;2022-12-07T06:02:03;22.55;;;15.10;;
62610;SDS011;48683;48.084;17.272;2022-12-07T06:04:31;28.20;;;16.20;;
62610;SDS011;48683;48.084;17.272;2022-12-07T06:06:59;23.17;;;16.15;;
62610;SDS011;48683;48.084;17.272;2022-12-07T06:09:25;22.30;;;15.80;;
62610;SDS011;48683;48.084;17.272;2022-12-07T06:11:52;22.58;;;15.05;;
62610;SDS011;48683;48.084;17.272;2022-12-07T06:14:37;22.23;;;15.40;;
62610;SDS011;48683;48.084;17.272;2022-12-07T06:17:03;21.00;;;14.70;;
62610;SDS011;48683;48.084;17.272;2022-12-07T06:19:28;19.85;;;14.35;;
62610;SDS011;48683;48.084;17.272;2022-12-07T06:21:53;20.90;;;14.75;;
62610;SDS011;48683;48.084;17.272;2022-12-07T06:24:19;21.80;;;15.60;;
62610;SDS011;48683;48.084;17.272;2022-12-07T06:26:45;19.77;;;14.18;;
62610;SDS011;48683;48.084;17.272;2022-12-07T06:29:11;20.80;;;14.25;;
62610;SDS011;48683;48.084;17.272;2022-12-07T06:31:37;21.45;;;14.65;;
62610;SDS011;48683;48.084;17.272;2022-12-07T06:34:04;21.23;;;14.52;;
62610;SDS011;48683;48.084;17.272;2022-12-07T06:36:31;20.08;;;14.65;;
62610;SDS011;48683;48.084;17.272;2022-12-07T06:38:57;20.90;;;14.05;;
62610;SDS011;48683;48.084;17.272;2022-12-07T06:41:23;18.85;;;13.65;;
62610;SDS011;48683;48.084;17.272;2022-12-07T06:43:48;20.15;;;13.77;;
62610;SDS011;48683;48.084;17.272;2022-12-07T06:46:14;19.80;;;14.23;;
62610;SDS011;48683;48.084;17.272;2022-12-07T06:48:41;19.30;;;14.63;;
62610;SDS011;48683;48.084;17.272;2022-12-07T06:51:06;21.15;;;14.13;;
62610;SDS011;48683;48.084;17.272;2022-12-07T06:53:32;20.20;;;14.02;;
62610;SDS011;48683;48.084;17.272;2022-12-07T06:55:57;20.13;;;13.82;;
62610;SDS011;48683;48.084;17.272;2022-12-07T06:58:22;21.50;;;14.85;;
62610;SDS011;48683;48.084;17.272;2022-12-07T07:00:48;21.60;;;15.40;;
62610;SDS011;48683;48.084;17.272;2022-12-07T07:03:14;19.97;;;14.17;;
62610;SDS011;48683;48.084;17.272;2022-12-07T07:05:39;22.67;;;14.63;;
62610;SDS011;48683;48.084;17.272;2022-12-07T07:08:05;20.23;;;14.13;;
62610;SDS011;48683;48.084;17.272;2022-12-07T07:10:30;21.58;;;14.27;;
62610;SDS011;48683;48.084;17.272;2022-12-07T07:12:56;20.70;;;14.10;;
62610;SDS011;48683;48.084;17.272;2022-12-07T07:15:21;20.80;;;13.88;;
62610;SDS011;48683;48.084;17.272;2022-12-07T07:17:46;24.13;;;13.95;;
62610;SDS011;48683;48.084;17.272;2022-12-07T07:20:12;21.63;;;15.07;;
62610;SDS011;48683;48.084;17.272;2022-12-07T07:22:37;27.90;;;14.05;;
62610;SDS011;48683;48.084;17.272;2022-12-07T07:25:03;24.00;;;14.13;;
62610;SDS011;48683;48.084;17.272;2022-12-07T07:27:28;21.15;;;14.07;;
62610;SDS011;48683;48.084;17.272;2022-12-07T07:29:54;24.83;;;15.65;;
62610;SDS011;48683;48.084;17.272;2022-12-07T07:32:19;21.40;;;14.90;;
62610;SDS011;48683;48.084;17.272;2022-12-07T07:34:46;18.70;;;15.32;;
62610;SDS011;48683;48.084;17.272;2022-12-07T07:37:12;18.85;;;14.73;;
62610;SDS011;48683;48.084;17.272;2022-12-07T07:39:37;21.42;;;16.70;;
62610;SDS011;48683;48.084;17.272;2022-12-07T07:42:03;17.88;;;15.15;;
62610;SDS011;48683;48.084;17.272;2022-12-07T07:44:28;19.65;;;15.70;;
62610;SDS011;48683;48.084;17.272;2022-12-07T07:46:54;20.70;;;16.70;;
62610;SDS011;48683;48.084;17.272;2022-12-07T07:49:19;20.83;;;17.10;;
62610;SDS011;48683;48.084;17.272;2022-12-07T07:51:44;21.00;;;17.10;;
62610;SDS011;48683;48.084;17.272;2022-12-07T07:54:10;21.05;;;17.13;;
62610;SDS011;48683;48.084;17.272;2022-12-07T07:56:35;20.00;;;15.80;;
62610;SDS011;48683;48.084;17.272;2022-12-07T07:59:01;19.58;;;13.93;;
62610;SDS011;48683;48.084;17.272;2022-12-07T08:01:26;20.70;;;14.77;;
62610;SDS011;48683;48.084;17.272;2022-12-07T08:03:51;16.73;;;13.98;;
62610;SDS011;48683;48.084;17.272;2022-12-07T08:06:17;18.38;;;13.93;;
62610;SDS011;48683;48.084;17.272;2022-12-07T08:08:42;19.92;;;14.88;;
62610;SDS011;48683;48.084;17.272;2022-12-07T08:11:08;17.95;;;14.50;;
62610;SDS011;48683;48.084;17.272;2022-12-07T08:13:33;25.35;;;17.85;;
62610;SDS011;48683;48.084;17.272;2022-12-07T08:16:03;26.92;;;18.67;;
62610;SDS011;48683;48.084;17.272;2022-12-07T08:18:29;19.25;;;16.33;;
62610;SDS011;48683;48.084;17.272;2022-12-07T08:20:59;23.75;;;17.92;;
62610;SDS011;48683;48.084;17.272;2022-12-07T08:23:25;23.67;;;18.52;;
62610;SDS011;48683;48.084;17.272;2022-12-07T08:25:51;19.02;;;14.27;;
62610;SDS011;48683;48.084;17.272;2022-12-07T08:28:16;18.92;;;15.30;;
62610;SDS011;48683;48.084;17.272;2022-12-07T08:30:42;19.77;;;14.85;;
62610;SDS011;48683;48.084;17.272;2022-12-07T08:33:08;20.83;;;14.35;;
62610;SDS011;48683;48.084;17.272;2022-12-07T08:35:35;20.23;;;14.60;;
62610;SDS011;48683;48.084;17.272;2022-12-07T08:38:00;21.60;;;13.85;;
62610;SDS011;48683;48.084;17.272;2022-12-07T08:40:27;19.98;;;13.25;;
62610;SDS011;48683;48.084;17.272;2022-12-07T08:42:53;18.70;;;13.43;;
62610;SDS011;48683;48.084;17.272;2022-12-07T08:45:19;17.58;;;13.20;;
62610;SDS011;48683;48.084;17.272;2022-12-07T08:50:15;18.73;;;13.60;;
62610;SDS011;48683;48.084;17.272;2022-12-07T08:52:41;18.05;;;12.27;;
62610;SDS011;48683;48.084;17.272;2022-12-07T08:55:08;19.58;;;13.13;;
62610;SDS011;48683;48.084;17.272;2022-12-07T08:57:35;19.10;;;12.95;;
62610;SDS011;48683;48.084;17.272;2022-12-07T09:00:02;18.02;;;12.35;;
62610;SDS011;48683;48.084;17.272;2022-12-07T09:02:29;20.95;;;12.73;;
62610;SDS011;48683;48.084;17.272;2022-12-07T09:04:55;18.60;;;13.23;;
62610;SDS011;48683;48.084;17.272;2022-12-07T09:07:21;19.55;;;13.10;;
62610;SDS011;48683;48.084;17.272;2022-12-07T09:09:46;22.77;;;13.38;;
62610;SDS011;48683;48.084;17.272;2022-12-07T09:12:12;19.00;;;12.95;;
62610;SDS011;48683;48.084;17.272;2022-12-07T09:14:37;21.73;;;13.00;;
62610;SDS011;48683;48.084;17.272;2022-12-07T09:17:06;18.00;;;11.63;;
62610;SDS011;48683;48.084;17.272;2022-12-07T09:19:33;16.52;;;12.27;;
62610;SDS011;48683;48.084;17.272;2022-12-07T09:21:58;19.48;;;12.15;;
62610;SDS011;48683;48.084;17.272;2022-12-07T09:24:23;16.55;;;11.93;;
62610;SDS011;48683;48.084;17.272;2022-12-07T09:26:49;17.67;;;11.57;;
62610;SDS011;48683;48.084;17.272;2022-12-07T09:29:14;16.13;;;11.55;;
62610;SDS011;48683;48.084;17.272;2022-12-07T09:31:40;16.33;;;11.68;;
62610;SDS011;48683;48.084;17.272;2022-12-07T09:34:05;14.93;;;10.73;;
62610;SDS011;48683;48.084;17.272;2022-12-07T09:36:31;15.45;;;11.18;;
62610;SDS011;48683;48.084;17.272;2022-12-07T09:38:56;17.27;;;11.38;;
62610;SDS011;48683;48.084;17.272;2022-12-07T09:41:22;17.73;;;11.38;;
62610;SDS011;48683;48.084;17.272;2022-12-07T09:43:50;15.88;;;11.75;;
62610;SDS011;48683;48.084;17.272;2022-12-07T09:46:16;16.23;;;11.43;;
62610;SDS011;48683;48.084;17.272;2022-12-07T09:48:44;17.50;;;11.63;;
62610;SDS011;48683;48.084;17.272;2022-12-07T09:51:17;16.58;;;11.23;;
62610;SDS011;48683;48.084;17.272;2022-12-07T09:53:47;18.92;;;11.35;;
62610;SDS011;48683;48.084;17.272;2022-12-07T09:56:13;14.40;;;10.73;;
62610;SDS011;48683;48.084;17.272;2022-12-07T09:58:39;12.48;;;9.18;;
62610;SDS011;48683;48.084;17.272;2022-12-07T10:03:30;11.18;;;8.65;;
62610;SDS011;48683;48.084;17.272;2022-12-07T10:05:56;13.63;;;8.88;;
62610;SDS011;48683;48.084;17.272;2022-12-07T10:08:22;11.98;;;8.38;;
62610;SDS011;48683;48.084;17.272;2022-12-07T10:10:51;11.02;;;8.20;;
62610;SDS011;48683;48.084;17.272;2022-12-07T10:13:19;10.90;;;7.82;;
62610;SDS011;48683;48.084;17.272;2022-12-07T10:15:56;11.13;;;7.82;;
62610;SDS011;48683;48.084;17.272;2022-12-07T10:23:35;9.38;;;7.50;;
62610;SDS011;48683;48.084;17.272;2022-12-07T10:26:21;10.32;;;8.20;;
62610;SDS011;48683;48.084;17.272;2022-12-07T10:28:53;10.00;;;7.05;;
62610;SDS011;48683;48.084;17.272;2022-12-07T10:31:20;9.18;;;6.65;;
62610;SDS011;48683;48.084;17.272;2022-12-07T10:33:51;10.18;;;6.25;;
62610;SDS011;48683;48.084;17.272;2022-12-07T10:39:03;6.32;;;5.10;;
62610;SDS011;48683;48.084;17.272;2022-12-07T10:41:57;7.53;;;5.50;;
62610;SDS011;48683;48.084;17.272;2022-12-07T10:44:27;6.68;;;5.05;;
62610;SDS011;48683;48.084;17.272;2022-12-07T10:49:48;8.07;;;4.45;;
62610;SDS011;48683;48.084;17.272;2022-12-07T11:01:11;4.28;;;3.53;;
62610;SDS011;48683;48.084;17.272;2022-12-07T11:09:36;3.90;;;3.50;;
62610;SDS011;48683;48.084;17.272;2022-12-07T11:18:12;3.83;;;3.25;;
62610;SDS011;48683;48.084;17.272;2022-12-07T11:23:16;5.10;;;3.38;;
62610;SDS011;48683;48.084;17.272;2022-12-07T11:34:00;10.60;;;3.83;;
62610;SDS011;48683;48.084;17.272;2022-12-07T11:36:38;4.00;;;3.53;;
62610;SDS011;48683;48.084;17.272;2022-12-07T11:39:16;4.40;;;4.00;;
62610;SDS011;48683;48.084;17.272;2022-12-07T11:41:56;4.03;;;3.63;;
62610;SDS011;48683;48.084;17.272;2022-12-07T11:44:48;7.90;;;3.50;;
62610;SDS011;48683;48.084;17.272;2022-12-07T11:52:20;6.57;;;3.38;;
62610;SDS011;48683;48.084;17.272;2022-12-07T11:54:50;4.38;;;3.42;;
62610;SDS011;48683;48.084;17.272;2022-12-07T11:57:20;4.95;;;3.60;;
62610;SDS011;48683;48.084;17.272;2022-12-07T11:59:54;5.18;;;3.83;;
62610;SDS011;48683;48.084;17.272;2022-12-07T12:02:32;4.57;;;3.88;;
62610;SDS011;48683;48.084;17.272;2022-12-07T12:07:43;3.88;;;3.45;;
62610;SDS011;48683;48.084;17.272;2022-12-07T12:10:22;4.30;;;3.90;;
62610;SDS011;48683;48.084;17.272;2022-12-07T12:23:17;5.28;;;3.75;;
62610;SDS011;48683;48.084;17.272;2022-12-07T12:26:48;3.97;;;3.55;;
62610;SDS011;48683;48.084;17.272;2022-12-07T12:28:56;4.78;;;4.00;;
62610;SDS011;48683;48.084;17.272;2022-12-07T12:33:53;4.10;;;3.70;;
62610;SDS011;48683;48.084;17.272;2022-12-07T12:47:02;5.30;;;4.07;;
62610;SDS011;48683;48.084;17.272;2022-12-07T12:49:39;5.05;;;3.75;;
62610;SDS011;48683;48.084;17.272;2022-12-07T12:57:27;6.13;;;4.35;;
62610;SDS011;48683;48.084;17.272;2022-12-07T13:04:59;5.47;;;4.28;;
62610;SDS011;48683;48.084;17.272;2022-12-07T13:13:02;5.35;;;4.50;;
62610;SDS011;48683;48.084;17.272;2022-12-07T13:23:35;4.65;;;3.97;;
62610;SDS011;48683;48.084;17.272;2022-12-07T13:31:44;6.00;;;4.03;;
62610;SDS011;48683;48.084;17.272;2022-12-07T13:36:56;5.90;;;4.55;;
62610;SDS011;48683;48.084;17.272;2022-12-07T13:39:23;5.60;;;4.22;;
62610;SDS011;48683;48.084;17.272;2022-12-07T13:41:54;4.40;;;3.83;;
62610;SDS011;48683;48.084;17.272;2022-12-07T13:44:22;5.22;;;3.60;;
62610;SDS011;48683;48.084;17.272;2022-12-07T13:46:59;5.15;;;4.10;;
62610;SDS011;48683;48.084;17.272;2022-12-07T13:49:26;6.03;;;4.03;;
62610;SDS011;48683;48.084;17.272;2022-12-07T13:51:53;4.25;;;3.70;;
62610;SDS011;48683;48.084;17.272;2022-12-07T13:54:20;5.10;;;4.25;;
62610;SDS011;48683;48.084;17.272;2022-12-07T13:56:52;4.95;;;4.00;;
62610;SDS011;48683;48.084;17.272;2022-12-07T13:59:22;4.70;;;3.80;;
62610;SDS011;48683;48.084;17.272;2022-12-07T14:01:50;5.40;;;4.30;;
62610;SDS011;48683;48.084;17.272;2022-12-07T14:04:30;6.80;;;4.10;;
62610;SDS011;48683;48.084;17.272;2022-12-07T14:06:57;6.88;;;4.07;;
62610;SDS011;48683;48.084;17.272;2022-12-07T14:09:24;4.57;;;3.90;;
62610;SDS011;48683;48.084;17.272;2022-12-07T14:11:55;4.20;;;3.80;;
62610;SDS011;48683;48.084;17.272;2022-12-07T14:14:23;4.35;;;3.95;;
62610;SDS011;48683;48.084;17.272;2022-12-07T14:17:12;4.60;;;3.83;;
62610;SDS011;48683;48.084;17.272;2022-12-07T14:19:43;3.75;;;3.40;;
62610;SDS011;48683;48.084;17.272;2022-12-07T14:22:53;4.67;;;3.70;;
62610;SDS011;48683;48.084;17.272;2022-12-07T14:25:25;4.65;;;3.92;;
62610;SDS011;48683;48.084;17.272;2022-12-07T14:27:53;4.70;;;3.80;;
62610;SDS011;48683;48.084;17.272;2022-12-07T14:30:29;6.40;;;3.85;;
62610;SDS011;48683;48.084;17.272;2022-12-07T14:32:57;4.88;;;3.80;;
62610;SDS011;48683;48.084;17.272;2022-12-07T14:35:25;4.32;;;3.60;;
62610;SDS011;48683;48.084;17.272;2022-12-07T14:37:51;4.53;;;3.88;;
62610;SDS011;48683;48.084;17.272;2022-12-07T14:40:20;4.40;;;3.80;;
62610;SDS011;48683;48.084;17.272;2022-12-07T14:42:50;5.40;;;4.28;;
62610;SDS011;48683;48.084;17.272;2022-12-07T14:45:19;7.10;;;4.75;;
62610;SDS011;48683;48.084;17.272;2022-12-07T14:47:47;5.93;;;4.40;;
62610;SDS011;48683;48.084;17.272;2022-12-07T14:50:14;5.73;;;4.47;;
62610;SDS011;48683;48.084;17.272;2022-12-07T14:52:41;7.40;;;4.28;;
62610;SDS011;48683;48.084;17.272;2022-12-07T14:55:12;7.47;;;4.78;;
62610;SDS011;48683;48.084;17.272;2022-12-07T14:57:58;6.18;;;5.07;;
62610;SDS011;48683;48.084;17.272;2022-12-07T15:00:24;6.65;;;5.50;;
62610;SDS011;48683;48.084;17.272;2022-12-07T15:02:51;6.43;;;5.28;;
62610;SDS011;48683;48.084;17.272;2022-12-07T15:05:17;6.95;;;4.72;;
62610;SDS011;48683;48.084;17.272;2022-12-07T15:07:44;7.63;;;6.40;;
62610;SDS011;48683;48.084;17.272;2022-12-07T15:10:43;8.68;;;5.47;;
62610;SDS011;48683;48.084;17.272;2022-12-07T15:13:03;10.23;;;6.55;;
62610;SDS011;48683;48.084;17.272;2022-12-07T15:15:48;9.80;;;6.50;;
62610;SDS011;48683;48.084;17.272;2022-12-07T15:20:41;10.77;;;6.57;;
62610;SDS011;48683;48.084;17.272;2022-12-07T15:23:07;8.98;;;6.57;;
62610;SDS011;48683;48.084;17.272;2022-12-07T15:25:32;9.30;;;6.72;;
62610;SDS011;48683;48.084;17.272;2022-12-07T15:27:58;11.00;;;6.72;;
62610;SDS011;48683;48.084;17.272;2022-12-07T15:30:23;9.25;;;6.75;;
62610;SDS011;48683;48.084;17.272;2022-12-07T15:32:49;9.48;;;6.78;;
62610;SDS011;48683;48.084;17.272;2022-12-07T15:35:15;9.88;;;6.82;;
62610;SDS011;48683;48.084;17.272;2022-12-07T15:37:40;8.85;;;6.18;;
62610;SDS011;48683;48.084;17.272;2022-12-07T15:40:06;9.77;;;6.90;;
62610;SDS011;48683;48.084;17.272;2022-12-07T15:42:32;9.88;;;7.43;;
62610;SDS011;48683;48.084;17.272;2022-12-07T15:44:57;8.57;;;6.57;;
62610;SDS011;48683;48.084;17.272;2022-12-07T15:47:36;10.80;;;6.78;;
62610;SDS011;48683;48.084;17.272;2022-12-07T15:50:03;10.68;;;6.60;;
62610;SDS011;48683;48.084;17.272;2022-12-07T15:52:30;11.07;;;7.13;;
62610;SDS011;48683;48.084;17.272;2022-12-07T15:54:56;10.23;;;7.05;;
62610;SDS011;48683;48.084;17.272;2022-12-07T15:57:21;12.85;;;6.80;;
62610;SDS011;48683;48.084;17.272;2022-12-07T15:59:47;7.80;;;6.28;;
62610;SDS011;48683;48.084;17.272;2022-12-07T16:02:12;8.10;;;6.43;;
62610;SDS011;48683;48.084;17.272;2022-12-07T16:04:38;11.13;;;7.47;;
62610;SDS011;48683;48.084;17.272;2022-12-07T16:07:03;9.70;;;7.65;;
62610;SDS011;48683;48.084;17.272;2022-12-07T16:09:28;12.45;;;8.70;;
62610;SDS011;48683;48.084;17.272;2022-12-07T16:11:54;11.40;;;7.53;;
62610;SDS011;48683;48.084;17.272;2022-12-07T16:14:19;8.77;;;6.72;;
62610;SDS011;48683;48.084;17.272;2022-12-07T16:16:46;9.48;;;6.78;;
62610;SDS011;48683;48.084;17.272;2022-12-07T16:19:12;12.20;;;7.30;;
62610;SDS011;48683;48.084;17.272;2022-12-07T16:21:38;8.40;;;6.55;;
62610;SDS011;48683;48.084;17.272;2022-12-07T16:24:04;8.73;;;6.97;;
62610;SDS011;48683;48.084;17.272;2022-12-07T16:26:30;11.23;;;7.38;;
62610;SDS011;48683;48.084;17.272;2022-12-07T16:28:56;8.13;;;6.43;;
62610;SDS011;48683;48.084;17.272;2022-12-07T16:31:23;9.50;;;6.57;;
62610;SDS011;48683;48.084;17.272;2022-12-07T16:33:50;9.93;;;7.25;;
62610;SDS011;48683;48.084;17.272;2022-12-07T16:36:18;9.35;;;6.88;;
62610;SDS011;48683;48.084;17.272;2022-12-07T16:38:43;10.25;;;7.45;;
62610;SDS011;48683;48.084;17.272;2022-12-07T16:41:10;10.63;;;7.82;;
62610;SDS011;48683;48.084;17.272;2022-12-07T16:43:36;11.63;;;7.45;;
62610;SDS011;48683;48.084;17.272;2022-12-07T16:46:02;10.27;;;7.20;;
62610;SDS011;48683;48.084;17.272;2022-12-07T16:48:27;9.68;;;7.30;;
62610;SDS011;48683;48.084;17.272;2022-12-07T16:50:53;10.27;;;7.35;;